Latest Weather Observations for Holsworthy

IDN60901

Issued at 7:11 pm EST Friday 31 July 2015 (issued every 10 minutes, with the page automatically refreshed every 10 minutes)

About weather observations | Map of Sydney area stations | Latest observations for Sydney area | Other Formats
Station Details ID: 066161 Name: HOLSWORTHY AERODROME AWS Lat: -33.99 Lon: 150.95 Height: 68.16 m
Data from the previous 72 hours. | See also: Recent months at Holsworthy
Date/Time
EST
Tmp

°C
App
Tmp
°C
Dew
Point
°C
Rel
Hum
%
Delta-T

°C
Wind Press
QNH
hPa
Press
MSL
hPa
Rain
since
9 am
mm
Dir
 
Spd
km/h
Gust
km/h
Spd
kts
Gust
kts
31/07:00pm 12.6 9.6 7.7 72 2.4 SE 13 15 7 8 1020.4 1020.5 0.0
31/06:30pm 13.2 10.2 7.9 70 2.6 SE 13 17 7 9 1020.3 1020.4 0.0
31/06:00pm 13.7 10.7 7.5 66 3.0 SE 13 15 7 8 1020.1 1020.2 0.0
31/05:30pm 14.8 11.7 7.1 60 3.8 SE 13 17 7 9 1019.9 1020.0 0.0
31/05:00pm 17.0 14.6 4.3 43 6.0 NNE 6 9 3 5 1019.5 1019.6 0.0
31/04:30pm 18.4 16.2 5.3 42 6.4 NNE 6 7 3 4 1019.2 1019.2 0.0
31/04:00pm 19.8 17.8 4.3 36 7.4 WNW 4 7 2 4 1019.4 1019.5 0.0
31/03:30pm 19.2 16.4 3.4 35 7.4 NNW 7 11 4 6 1019.3 1019.3 0.0
31/03:00pm 19.4 16.9 4.7 38 7.1 NW 7 9 4 5 1019.4 1019.5 0.0
31/02:30pm 19.4 16.0 4.0 36 7.4 WSW 11 17 6 9 1019.4 1019.5 0.0
31/02:00pm 19.3 16.0 4.3 37 7.2 WNW 11 20 6 11 1019.5 1019.6 0.0
31/01:30pm 19.1 15.6 3.7 36 7.3 W 11 20 6 11 1019.9 1020.0 0.0
31/01:00pm 18.8 16.1 3.8 37 7.1 W 7 15 4 8 1020.1 1020.2 0.0
31/12:30pm 18.2 15.3 4.7 41 6.5 WSW 9 17 5 9 1020.5 1020.6 0.0
31/12:00pm 17.7 14.6 3.6 39 6.6 WSW 9 15 5 8 1021.1 1021.2 0.0
31/11:30am 17.2 13.7 3.5 40 6.4 WNW 11 20 6 11 1021.3 1021.4 0.0
31/11:00am 17.0 14.2 5.0 45 5.7 W 9 15 5 8 1021.7 1021.8 0.0
31/10:30am 15.9 13.1 5.2 49 5.1 W 9 13 5 7 1021.9 1022.0 0.0
31/10:00am 14.9 12.3 6.0 55 4.3 W 9 11 5 6 1021.8 1021.9 0.0
31/09:30am 13.3 9.9 5.7 60 3.6 W 13 19 7 10 1021.5 1021.6 0.0
31/09:00am 12.0 8.3 4.7 61 3.3 WNW 13 20 7 11 1021.3 1021.4 0.0
31/08:30am 11.5 9.0 4.7 63 3.1 W 7 9 4 5 1021.6 1021.7 0.0
31/08:00am 10.4 8.0 5.2 70 2.4 WSW 7 11 4 6 1021.3 1021.4 0.0
31/07:30am 7.7 5.1 4.1 78 1.6 WNW 7 9 4 5 1021.0 1021.1 0.0
31/07:00am 6.6 3.8 3.4 80 1.3 SW 7 9 4 5 1021.0 1021.1 0.0
31/06:30am 6.7 3.9 3.0 77 1.5 SW 7 11 4 6 1020.4 1020.5 0.0
31/06:00am 9.4 6.3 3.6 67 2.5 SW 9 11 5 6 1019.6 1019.7 0.0
31/05:30am 9.0 5.6 3.8 70 2.3 WSW 11 13 6 7 1019.6 1019.7 0.0
31/05:00am 8.3 5.3 3.9 74 1.9 WSW 9 11 5 6 1019.1 1019.1 0.0
31/04:30am 9.3 6.3 3.9 69 2.4 WSW 9 11 5 6 1018.9 1018.9 0.0
31/04:00am 9.3 6.6 3.5 67 2.5 SW 7 11 4 6 1018.9 1018.9 0.0
31/03:30am 10.5 7.8 3.8 63 3.0 W 7 11 4 6 1018.7 1018.7 0.0
31/03:00am 10.9 8.4 3.9 62 3.1 NW 6 9 3 5 1018.6 1018.6 0.0
31/02:30am 10.5 8.8 3.8 63 3.0 ENE 2 6 1 3 1018.7 1018.7 0.0
31/02:00am 10.4 8.9 3.2 61 3.1 CALM 0 0 0 0 1019.0 1019.0 0.0
31/01:30am 12.6 9.9 3.5 54 4.1 NW 7 11 4 6 1018.9 1018.9 0.0
31/01:00am 12.3 9.2 3.5 55 3.9 WNW 9 17 5 9 1018.9 1018.9 0.0
31/12:30am 10.8 9.4 3.4 60 3.3 CALM 0 0 0 0 1019.1 1019.1 0.0
31/12:00am 12.8 10.0 3.2 52 4.3 WNW 7 9 4 5 1019.0 1019.0 0.0
 
Date/Time
EST
Tmp

°C
App
Tmp
°C
Dew
Point
°C
Rel
Hum
%
Delta-T

°C
Wind Press
QNH
hPa
Press
MSL
hPa
Rain
since
9 am
mm
Dir
 
Spd
km/h
Gust
km/h
Spd
kts
Gust
kts
30/11:30pm 13.2 10.4 3.0 50 4.5 NNW 7 13 4 7 1018.6 1018.6 0.0
30/11:00pm 13.4 10.2 2.9 49 4.7 NW 9 15 5 8 1018.4 1018.4 0.0
30/10:30pm 13.3 9.7 2.8 49 4.7 NNW 11 15 6 8 1018.6 1018.6 0.0
30/10:00pm 13.8 9.8 2.7 47 4.9 NW 13 19 7 10 1019.0 1019.0 0.0
30/09:30pm 14.3 9.5 2.5 45 5.2 NW 17 30 9 16 1018.9 1018.9 0.0
30/09:00pm 14.4 9.9 2.3 44 5.3 NW 15 24 8 13 1018.9 1018.9 0.0
30/08:30pm 14.4 9.1 2.0 43 5.5 NW 19 33 10 18 1018.9 1018.9 0.0
30/08:00pm 14.5 9.2 2.1 43 5.5 NW 19 33 10 18 1018.9 1018.9 0.0
30/07:30pm 14.4 11.1 4.4 51 4.6 NW 11 17 6 9 1019.3 1019.3 0.0
30/07:00pm 14.2 10.6 4.8 53 4.4 NNW 13 20 7 11 1019.2 1019.2 0.0
30/06:30pm 14.1 11.2 4.7 53 4.4 NNW 9 13 5 7 1019.1 1019.1 0.0
30/06:00pm 15.4 12.1 4.8 49 5.0 N 11 15 6 8 1019.0 1019.0 0.0
30/05:30pm 15.7 12.3 4.1 46 5.4 NNW 11 17 6 9 1018.6 1018.6 0.0
30/05:00pm 16.2 13.3 4.6 46 5.5 NNW 9 13 5 7 1018.5 1018.5 0.0
30/04:30pm 17.1 13.4 4.4 43 6.0 NNW 13 17 7 9 1018.8 1018.8 0.0
30/04:00pm 17.9 14.3 4.8 42 6.3 NNW 13 19 7 10 1019.0 1019.0 0.0
30/03:30pm 18.3 14.3 4.8 41 6.5 NNW 15 24 8 13 1019.5 1019.6 0.0
30/03:00pm 18.7 15.3 4.1 38 6.9 N 11 15 6 8 1019.7 1019.8 0.0
30/02:30pm 18.6 15.1 3.3 36 7.2 NW 11 20 6 11 1020.0 1020.1 0.0
30/02:00pm 18.5 14.7 3.9 38 6.9 NW 13 20 7 11 1020.6 1020.7 0.0
30/01:30pm 18.1 14.8 4.7 41 6.4 NW 11 19 6 10 1021.2 1021.3 0.0
30/01:00pm 17.3 14.0 4.3 42 6.1 NNW 11 20 6 11 1021.6 1021.7 0.0
30/12:30pm 16.8 13.7 5.7 48 5.4 NW 11 17 6 9 1022.2 1022.3 0.0
30/12:00pm 15.8 12.4 5.7 51 4.8 NNW 13 17 7 9 1022.8 1022.9 0.0
30/11:30am 14.7 11.8 6.5 58 4.0 N 11 15 6 8 1023.5 1023.6 0.0
30/11:00am 13.4 11.0 7.2 66 3.0 NNW 9 13 5 7 1024.4 1024.5 0.0
30/10:30am 11.3 8.9 7.2 76 2.0 NNW 9 13 5 7 1025.2 1025.3 0.0
30/10:00am 9.9 7.8 6.6 80 1.5 WNW 7 9 4 5 1025.8 1025.9 0.0
30/09:30am 9.1 6.6 6.5 84 1.2 W 9 11 5 6 1026.2 1026.3 0.0
30/09:00am 8.2 6.3 7.4 95 0.4 W 7 11 4 6 1026.5 1026.6 0.0
30/08:30am 6.0 2.9 5.7 98 0.1 W 11 13 6 7 1026.4 1026.5 0.0
30/08:00am 4.6 1.6 4.3 98 0.1 W 9 11 5 6 1026.7 1026.8 0.0
30/07:30am 4.5 1.5 4.2 98 0.1 WSW 9 13 5 7 1026.5 1026.6 0.0
30/07:00am 3.7 -0.2 3.3 97 0.2 WSW 13 15 7 8 1026.3 1026.4 0.0
30/06:30am 2.7 -0.1 2.1 96 0.2 W 6 9 3 5 1026.2 1026.3 0.0
30/06:00am 3.5 2.0 2.9 96 0.2 CALM 0 0 0 0 1026.2 1026.3 0.0
30/05:30am 3.2 0.9 2.5 95 0.3 WSW 4 9 2 5 1026.5 1026.6 0.0
30/05:00am 3.9 2.4 3.2 95 0.3 CALM 0 0 0 0 1026.6 1026.7 0.0
30/04:30am 4.6 3.3 3.9 95 0.3 CALM 0 6 0 3 1026.6 1026.7 0.0
30/04:00am 4.2 1.4 3.3 94 0.4 WSW 7 9 4 5 1027.0 1027.1 0.0
30/03:30am 5.1 3.8 4.2 94 0.4 CALM 0 0 0 0 1027.2 1027.3 0.0
30/03:00am 5.9 4.8 5.0 94 0.4 CALM 0 0 0 0 1027.3 1027.4 0.0
30/02:30am 6.0 4.9 5.0 93 0.4 CALM 0 0 0 0 1027.3 1027.4 0.0
30/02:00am 6.5 5.1 5.3 92 0.5 E 2 7 1 4 1027.6 1027.7 0.0
30/01:30am 7.3 5.7 6.4 94 0.4 WSW 4 6 2 3 1028.2 1028.3 0.0
30/01:00am 6.7 4.4 5.7 93 0.4 WSW 7 9 4 5 1028.7 1028.8 0.0
30/12:30am 7.0 5.7 5.9 93 0.5 SW 2 7 1 4 1028.9 1029.0 0.0
30/12:00am 7.2 5.5 6.1 93 0.5 SSW 4 6 2 3 1029.2 1029.3 0.0
 
Date/Time
EST
Tmp

°C
App
Tmp
°C
Dew
Point
°C
Rel
Hum
%
Delta-T

°C
Wind Press
QNH
hPa
Press
MSL
hPa
Rain
since
9 am
mm
Dir
 
Spd
km/h
Gust
km/h
Spd
kts
Gust
kts
29/11:30pm 7.1 5.0 6.0 93 0.5 S 6 6 3 3 1029.6 1029.6 0.0
29/11:00pm 7.0 4.9 5.9 93 0.5 SSW 6 9 3 5 1030.1 1030.1 0.0
29/10:30pm 7.6 4.7 6.7 94 0.4 SW 11 13 6 7 1030.5 1030.5 0.0
29/10:00pm 6.5 4.1 5.1 91 0.6 WSW 7 11 4 6 1030.5 1030.5 0.0
29/09:30pm 8.0 6.4 6.5 90 0.7 SE 4 6 2 3 1030.5 1030.5 0.0
29/09:00pm 8.2 6.2 6.3 88 0.9 SE 6 7 3 4 1030.5 1030.5 0.0
29/08:30pm 9.2 6.8 7.0 86 1.0 SE 9 9 5 5 1030.3 1030.3 0.0
29/08:00pm 9.7 7.3 7.0 83 1.3 SE 9 11 5 6 1030.4 1030.4 0.0
29/07:30pm 10.7 8.5 7.9 83 1.4 ESE 9 11 5 6 1030.5 1030.5 0.0
29/07:00pm 10.7 8.8 7.4 80 1.6 SE 7 9 4 5 1030.6 1030.6 0.0
29/06:30pm 11.6 9.4 7.7 77 1.9 SE 9 11 5 6 1030.5 1030.5 0.0
29/06:00pm 11.8 9.5 7.3 74 2.2 ESE 9 11 5 6 1030.1 1030.1 0.0
29/05:30pm 12.7 10.4 7.6 71 2.5 E 9 11 5 6 1029.9 1029.9 0.0
29/05:00pm 13.7 11.5 7.7 67 2.9 E 9 11 5 6 1029.7 1029.7 0.0
29/04:30pm 14.6 11.9 7.4 62 3.6 ENE 11 15 6 8 1029.6 1029.6 0.0
29/04:00pm 16.2 14.3 6.6 53 4.7 E 6 13 3 7 1029.7 1029.7 0.0
29/03:30pm 16.8 13.9 4.8 45 5.7 NNE 9 13 5 7 1029.7 1029.7 0.0
29/03:00pm 17.0 14.2 5.3 46 5.6 NNE 9 13 5 7 1030.1 1030.1 0.0
29/02:30pm 16.9 13.7 4.9 45 5.7 NW 11 15 6 8 1030.5 1030.5 0.0
29/02:00pm 17.1 14.7 5.1 45 5.7 WNW 7 11 4 6 1030.8 1030.8 0.0
29/01:30pm 17.0 14.6 5.3 46 5.6 NNW 7 11 4 6 1031.2 1031.2 0.0
29/01:00pm 16.5 14.2 4.9 46 5.5 SSW 6 11 3 6 1031.6 1031.7 0.0
29/12:30pm 16.1 13.8 5.7 50 5.0 NNW 7 15 4 8 1032.2 1032.3 0.0
29/12:00pm 15.9 14.2 5.8 51 4.8 NNW 4 11 2 6 1032.9 1033.0 0.0
29/11:30am 15.1 12.6 6.4 56 4.2 NW 9 13 5 7 1033.5 1033.6 0.0
29/11:00am 14.6 12.2 7.2 61 3.6 W 9 13 5 7 1033.9 1034.0 0.0
29/10:30am 13.5 10.6 6.4 62 3.4 W 11 15 6 8 1034.6 1034.7 0.0
29/10:00am 12.3 9.3 6.1 66 2.9 W 11 15 6 8 1034.8 1034.9 0.0
29/09:30am 10.8 7.8 5.8 71 2.3 W 11 15 6 8 1034.9 1035.0 0.0
29/09:00am 9.5 6.4 5.5 76 1.8 W 11 15 6 8 1035.1 1035.2 0.0
29/08:30am 7.7 4.4 4.7 81 1.3 W 11 13 6 7 1035.0 1035.1 0.0
29/08:00am 6.4 3.1 4.7 89 0.7 WSW 11 13 6 7 1034.8 1034.9 0.0
29/07:30am 5.5 2.4 3.8 89 0.7 WSW 9 13 5 7 1034.4 1034.5 0.0
29/07:00am 5.8 2.0 4.1 89 0.7 WSW 13 17 7 9 1034.1 1034.2 0.0
29/06:30am 6.0 2.3 4.5 90 0.6 WSW 13 15 7 8 1033.8 1033.9 0.0
29/06:00am 5.8 2.1 4.4 91 0.6 WSW 13 17 7 9 1033.6 1033.7 0.0
29/05:30am 6.0 2.6 4.0 87 0.9 WSW 11 13 6 7 1033.4 1033.5 0.0
29/05:00am 6.6 3.6 4.3 85 1.0 WSW 9 13 5 7 1033.3 1033.4 0.0
29/04:30am 7.0 4.1 4.5 84 1.1 W 9 13 5 7 1033.1 1033.2 0.0
29/04:00am 7.0 4.0 4.1 82 1.2 WSW 9 13 5 7 1033.0 1033.1 0.0
29/03:30am 7.4 3.7 4.2 80 1.4 WSW 13 17 7 9 1032.9 1033.0 0.0
29/03:00am 6.6 2.8 3.9 83 1.1 SW 13 17 7 9 1033.0 1033.1 0.0
29/02:30am 6.7 3.7 4.2 84 1.1 SW 9 13 5 7 1033.2 1033.3 0.0
29/02:00am 6.2 2.4 4.0 86 0.9 SW 13 17 7 9 1033.2 1033.3 0.0
29/01:30am 5.3 1.5 4.0 91 0.6 SW 13 15 7 8 1033.2 1033.3 0.0
29/01:00am 5.6 1.5 4.2 91 0.6 SW 15 17 8 9 1033.2 1033.3 0.0
29/12:30am 5.9 1.8 4.4 90 0.6 SW 15 19 8 10 1033.3 1033.4 0.0
29/12:00am 5.3 1.8 3.6 89 0.7 SW 11 13 6 7 1033.2 1033.3 0.0
 
Date/Time
EST
Tmp

°C
App
Tmp
°C
Dew
Point
°C
Rel
Hum
%
Delta-T

°C
Wind Press
QNH
hPa
Press
MSL
hPa
Rain
since
9 am
mm
Dir
 
Spd
km/h
Gust
km/h
Spd
kts
Gust
kts
28/11:30pm 5.9 2.1 4.1 88 0.8 WSW 13 15 7 8 1033.2 1033.3 0.0
28/11:00pm 6.4 2.7 4.4 87 0.9 SW 13 15 7 8 1033.3 1033.4 0.0
28/10:30pm 7.0 3.4 4.8 86 1.0 SW 13 17 7 9 1033.4 1033.5 0.0
28/10:00pm 6.2 2.8 4.0 86 0.9 WSW 11 13 6 7 1033.2 1033.3 0.0
28/09:30pm 7.8 4.3 5.4 85 1.1 SW 13 15 7 8 1033.1 1033.2 0.0
28/09:00pm 6.5 3.5 4.2 85 1.0 WSW 9 13 5 7 1033.0 1033.1 0.0
28/08:30pm 7.7 5.2 4.5 80 1.4 W 7 11 4 6 1032.9 1033.0 0.0
28/08:00pm 10.3 7.1 5.1 70 2.3 SE 11 13 6 7 1032.6 1032.7 0.0
28/07:30pm 10.8 7.3 5.6 70 2.4 SSE 13 17 7 9 1032.8 1032.9 0.0

Latest Capital City Observations: Canberra | Sydney | Melbourne | Brisbane | Adelaide | Perth | Hobart | Darwin

Other Formats:

Comma delimited format used in spreadsheet applications
http://www.bom.gov.au/fwo/IDN60901/IDN60901.95761.axf

JavaScript Object Notation format (JSON) in row-major order
http://www.bom.gov.au/fwo/IDN60901/IDN60901.95761.json